Time;durP1;ratioP1;P1;durP2;ratioP2;P2;SDS_P1;SDS_P2;PMS_P1;PMS_P2;Temp;Humidity;BMP_temperature;BMP_pressure;BME280_temperature;BME280_humidity;BME280_pressure;Samples;Min_cycle;Max_cycle;Signal;HPM_P1;HPM_P2
2022/11/08 00:01:51;;;;;;;;;8.67;8.67;;;;;;;;5033442;28;45557;-69
2022/11/08 00:04:17;;;;;;;;;10.33;6.33;;;;;;;;5019002;28;45595;-67
2022/11/08 00:14:55;;;;;;;;;6.67;4.67;;;;;;;;5013805;28;45431;-69
2022/11/08 00:17:21;;;;;;;;;8.00;7.00;;;;;;;;5014251;28;45339;-69
2022/11/08 00:19:47;;;;;;;;;8.00;6.00;;;;;;;;5015560;28;45695;-70
2022/11/08 00:22:13;;;;;;;;;10.00;8.67;;;;;;;;5014110;28;45703;-69
2022/11/08 00:24:38;;;;;;;;;8.33;8.33;;;;;;;;5014640;28;45377;-68
2022/11/08 00:27:04;;;;;;;;;13.33;7.67;;;;;;;;5017287;28;45308;-68
2022/11/08 00:29:30;;;;;;;;;6.00;6.00;;;;;;;;5033651;28;45306;-67
2022/11/08 00:31:55;;;;;;;;;4.00;3.00;;;;;;;;5038817;28;45879;-69
2022/11/08 00:34:21;;;;;;;;;8.00;7.00;;;;;;;;5029394;28;46132;-69
2022/11/08 00:36:46;;;;;;;;;11.33;6.33;;;;;;;;5029055;28;45407;-68
2022/11/08 00:39:11;;;;;;;;;9.00;7.67;;;;;;;;5024657;28;45435;-68
2022/11/08 00:41:36;;;;;;;;;5.00;5.00;;;;;;;;5031928;28;45506;-68
2022/11/08 00:44:02;;;;;;;;;7.67;6.67;;;;;;;;5026921;28;46173;-66
2022/11/08 00:46:27;;;;;;;;;7.67;7.33;;;;;;;;5026844;28;45305;-67
2022/11/08 00:48:52;;;;;;;;;7.00;6.00;;;;;;;;5025045;28;45742;-68
2022/11/08 00:51:17;;;;;;;;;7.67;6.00;;;;;;;;5026730;28;46797;-68
2022/11/08 00:53:43;;;;;;;;;6.33;6.00;;;;;;;;5027586;28;45765;-68
2022/11/08 00:56:14;;;;;;;;;6.33;6.00;;;;;;;;5017909;28;45345;-67
2022/11/08 00:58:43;;;;;;;;;6.00;6.00;;;;;;;;5026588;28;45301;-69
2022/11/08 01:01:13;;;;;;;;;7.00;5.00;;;;;;;;5030610;28;45451;-67
2022/11/08 01:03:38;;;;;;;;;5.00;4.00;;;;;;;;5024383;28;45966;-67
2022/11/08 01:06:04;;;;;;;;;10.33;6.00;;;;;;;;5009051;28;45737;-67
2022/11/08 01:08:30;;;;;;;;;6.33;5.33;;;;;;;;5024596;28;46827;-66
2022/11/08 01:10:55;;;;;;;;;7.67;7.67;;;;;;;;5023555;28;45833;-67
2022/11/08 01:13:20;;;;;;;;;9.00;7.33;;;;;;;;5023577;28;46060;-69
2022/11/08 01:15:46;;;;;;;;;8.00;6.00;;;;;;;;5024282;28;45273;-67
2022/11/08 01:18:12;;;;;;;;;5.67;5.67;;;;;;;;5029445;28;45353;-68
2022/11/08 01:20:41;;;;;;;;;7.00;5.67;;;;;;;;5032083;28;46059;-68
2022/11/08 01:23:07;;;;;;;;;7.67;6.00;;;;;;;;5039695;28;45460;-68
2022/11/08 01:25:37;;;;;;;;;6.00;6.00;;;;;;;;5033358;28;45529;-67
2022/11/08 01:28:02;;;;;;;;;7.33;5.33;;;;;;;;5030263;28;45464;-69
2022/11/08 01:30:28;;;;;;;;;5.00;4.67;;;;;;;;5028042;28;45777;-68
2022/11/08 01:32:53;;;;;;;;;5.33;5.33;;;;;;;;5028883;28;46723;-69
2022/11/08 01:35:18;;;;;;;;;7.00;5.00;;;;;;;;5034093;28;45744;-67
2022/11/08 01:37:43;;;;;;;;;9.33;5.67;;;;;;;;5029821;28;45512;-68
2022/11/08 01:40:09;;;;;;;;;6.00;6.00;;;;;;;;5030811;28;45997;-68
2022/11/08 01:42:34;;;;;;;;;6.00;5.00;;;;;;;;5031083;28;45722;-68
2022/11/08 01:45:01;;;;;;;;;6.67;6.00;;;;;;;;5030954;28;45846;-68
2022/11/08 01:47:26;;;;;;;;;5.00;4.67;;;;;;;;5030026;28;45438;-68
2022/11/08 01:49:54;;;;;;;;;6.00;6.00;;;;;;;;5023106;28;45395;-67
2022/11/08 01:52:25;;;;;;;;;6.67;5.67;;;;;;;;5017100;28;45458;-68
2022/11/08 01:54:55;;;;;;;;;8.00;5.67;;;;;;;;5025938;28;45793;-68
2022/11/08 01:57:41;;;;;;;;;5.00;5.00;;;;;;;;5026818;28;45581;-68
2022/11/08 02:00:07;;;;;;;;;5.67;4.00;;;;;;;;5030091;28;45490;-69
2022/11/08 02:02:34;;;;;;;;;6.00;4.00;;;;;;;;5028131;28;45619;-67
2022/11/08 02:04:59;;;;;;;;;7.67;5.00;;;;;;;;5019081;28;45868;-68
2022/11/08 02:07:26;;;;;;;;;3.00;3.00;;;;;;;;5030683;28;45391;-69
2022/11/08 02:09:52;;;;;;;;;3.00;3.00;;;;;;;;5030010;28;45542;-68
2022/11/08 02:12:19;;;;;;;;;5.33;4.00;;;;;;;;5038818;28;45646;-68
2022/11/08 02:14:45;;;;;;;;;4.00;4.00;;;;;;;;5022577;28;45238;-68
2022/11/08 02:17:10;;;;;;;;;5.33;5.00;;;;;;;;5040355;28;45321;-69
2022/11/08 02:19:38;;;;;;;;;5.00;4.00;;;;;;;;5035650;28;45432;-67
2022/11/08 02:22:08;;;;;;;;;6.67;6.00;;;;;;;;5032431;28;48451;-69
2022/11/08 02:24:34;;;;;;;;;7.00;6.00;;;;;;;;5025991;28;45290;-69
2022/11/08 02:27:00;;;;;;;;;6.67;4.00;;;;;;;;5033472;28;45673;-68
2022/11/08 02:29:26;;;;;;;;;5.67;3.00;;;;;;;;5036161;28;45943;-68
2022/11/08 02:31:52;;;;;;;;;7.33;6.00;;;;;;;;5043591;28;46022;-70
2022/11/08 02:34:19;;;;;;;;;5.00;4.00;;;;;;;;5038747;28;45559;-69
2022/11/08 02:36:46;;;;;;;;;6.33;4.67;;;;;;;;5034857;28;45709;-68
2022/11/08 02:39:11;;;;;;;;;4.33;4.00;;;;;;;;5032456;28;46671;-68
2022/11/08 02:41:37;;;;;;;;;6.00;5.00;;;;;;;;5029384;28;45815;-67
2022/11/08 02:44:02;;;;;;;;;3.67;3.67;;;;;;;;5034699;28;45690;-68
2022/11/08 02:46:27;;;;;;;;;7.00;4.67;;;;;;;;5034658;28;45604;-69
2022/11/08 02:48:52;;;;;;;;;7.33;6.00;;;;;;;;5023351;28;45397;-69
2022/11/08 02:51:18;;;;;;;;;6.33;5.00;;;;;;;;5024073;28;45634;-69
2022/11/08 02:53:43;;;;;;;;;4.00;4.00;;;;;;;;5026095;28;45531;-69
2022/11/08 02:56:08;;;;;;;;;4.00;4.00;;;;;;;;5030843;28;45680;-68
2022/11/08 02:58:34;;;;;;;;;5.00;4.00;;;;;;;;5024851;28;45491;-70
2022/11/08 03:00:59;;;;;;;;;6.00;5.67;;;;;;;;5034228;28;45763;-70
2022/11/08 03:03:24;;;;;;;;;5.33;4.67;;;;;;;;5017165;28;46041;-67
2022/11/08 03:05:49;;;;;;;;;4.00;3.00;;;;;;;;5016586;28;45670;-68
2022/11/08 03:08:15;;;;;;;;;4.00;4.00;;;;;;;;5020878;28;45273;-68
2022/11/08 03:10:40;;;;;;;;;3.33;3.33;;;;;;;;5017654;28;47132;-67
2022/11/08 03:13:05;;;;;;;;;4.00;4.00;;;;;;;;5026803;28;45733;-68
2022/11/08 03:15:31;;;;;;;;;3.00;3.00;;;;;;;;5019461;28;45425;-68
2022/11/08 03:17:57;;;;;;;;;3.33;3.33;;;;;;;;5016268;28;45540;-68
2022/11/08 03:20:23;;;;;;;;;4.33;4.33;;;;;;;;5023918;28;47082;-67
2022/11/08 03:22:55;;;;;;;;;3.00;3.00;;;;;;;;5022044;28;45839;-69
2022/11/08 03:25:20;;;;;;;;;4.00;3.67;;;;;;;;5027575;28;45542;-67
2022/11/08 03:27:46;;;;;;;;;2.00;2.00;;;;;;;;5028498;28;45312;-66
2022/11/08 03:30:11;;;;;;;;;2.67;2.00;;;;;;;;5022996;28;45420;-67
2022/11/08 03:32:36;;;;;;;;;5.33;3.33;;;;;;;;5018477;28;45389;-67
2022/11/08 03:35:01;;;;;;;;;3.00;3.00;;;;;;;;5023903;28;46000;-67
2022/11/08 03:37:27;;;;;;;;;3.67;3.67;;;;;;;;5032982;28;45589;-69
2022/11/08 03:39:52;;;;;;;;;3.00;3.00;;;;;;;;5031442;28;45625;-66
2022/11/08 03:42:17;;;;;;;;;2.00;2.00;;;;;;;;5027651;28;45748;-66
2022/11/08 03:44:42;;;;;;;;;3.00;3.00;;;;;;;;5032577;28;45455;-67
2022/11/08 03:47:08;;;;;;;;;4.00;4.00;;;;;;;;5029796;28;45712;-67
2022/11/08 03:49:33;;;;;;;;;5.00;4.00;;;;;;;;5026780;28;46195;-66
2022/11/08 03:51:58;;;;;;;;;4.33;3.00;;;;;;;;5028129;28;45906;-67
2022/11/08 03:54:23;;;;;;;;;3.00;2.67;;;;;;;;5024680;28;45872;-65
2022/11/08 03:56:49;;;;;;;;;5.00;5.00;;;;;;;;5035415;28;46435;-68
2022/11/08 03:59:14;;;;;;;;;4.00;3.00;;;;;;;;5029857;28;46658;-67
2022/11/08 04:01:39;;;;;;;;;3.00;1.67;;;;;;;;5025954;28;45391;-69
2022/11/08 04:04:05;;;;;;;;;3.00;3.00;;;;;;;;5032191;28;45661;-68
2022/11/08 04:06:30;;;;;;;;;2.33;2.33;;;;;;;;5030417;28;45733;-66
2022/11/08 04:08:57;;;;;;;;;3.00;3.00;;;;;;;;5031359;28;46712;-66
2022/11/08 04:16:51;;;;;;;;;5.33;3.33;;;;;;;;5021567;28;45475;-64
2022/11/08 04:22:00;;;;;;;;;2.67;2.33;;;;;;;;5031773;28;45430;-67
2022/11/08 04:24:25;;;;;;;;;5.67;4.00;;;;;;;;5031268;28;45521;-67
2022/11/08 04:26:51;;;;;;;;;5.00;4.00;;;;;;;;5031705;28;45496;-66
2022/11/08 04:29:16;;;;;;;;;4.00;3.00;;;;;;;;5032119;28;45645;-66
2022/11/08 04:31:41;;;;;;;;;3.67;2.67;;;;;;;;5020584;28;45341;-66
2022/11/08 04:34:06;;;;;;;;;4.00;2.33;;;;;;;;5040448;28;45288;-65
2022/11/08 04:36:32;;;;;;;;;2.67;2.67;;;;;;;;5027028;28;45851;-66
2022/11/08 04:38:57;;;;;;;;;3.00;3.00;;;;;;;;5024259;28;45697;-67
2022/11/08 04:41:23;;;;;;;;;3.67;2.00;;;;;;;;5022519;28;45333;-67
2022/11/08 04:43:49;;;;;;;;;3.00;3.00;;;;;;;;5023262;28;45734;-66
2022/11/08 04:46:16;;;;;;;;;3.00;2.00;;;;;;;;5032136;28;45405;-66
2022/11/08 04:48:42;;;;;;;;;3.00;3.00;;;;;;;;5028493;28;45435;-67
2022/11/08 04:51:12;;;;;;;;;3.33;3.33;;;;;;;;5024423;28;45754;-66
2022/11/08 04:53:37;;;;;;;;;2.33;2.33;;;;;;;;5041288;28;45514;-68
2022/11/08 04:56:04;;;;;;;;;4.00;2.33;;;;;;;;5036359;28;45504;-66
2022/11/08 04:58:37;;;;;;;;;4.67;3.67;;;;;;;;5030806;28;45632;-66
2022/11/08 05:01:03;;;;;;;;;2.00;2.00;;;;;;;;5027587;28;45343;-65
2022/11/08 05:03:28;;;;;;;;;1.67;1.67;;;;;;;;5022444;28;45695;-66
2022/11/08 05:05:53;;;;;;;;;0.00;0.00;;;;;;;;5029892;28;45479;-65
2022/11/08 05:08:19;;;;;;;;;3.00;2.00;;;;;;;;5015604;28;46155;-67
2022/11/08 05:10:44;;;;;;;;;2.33;2.33;;;;;;;;5032422;28;45316;-66
2022/11/08 05:13:10;;;;;;;;;9.00;4.00;;;;;;;;5029892;28;45382;-66
2022/11/08 05:15:35;;;;;;;;;4.67;2.67;;;;;;;;5039122;28;45512;-67
2022/11/08 05:18:00;;;;;;;;;2.00;2.00;;;;;;;;5015645;28;46954;-67
2022/11/08 05:23:25;;;;;;;;;1.67;1.67;;;;;;;;5021374;28;45493;-66
2022/11/08 05:25:51;;;;;;;;;3.00;2.00;;;;;;;;5021655;28;46453;-68
2022/11/08 05:28:16;;;;;;;;;5.33;4.00;;;;;;;;5030399;28;48015;-66
2022/11/08 05:30:41;;;;;;;;;5.33;5.33;;;;;;;;5015253;28;46666;-67
2022/11/08 05:33:07;;;;;;;;;3.00;3.00;;;;;;;;5027896;28;45882;-68
2022/11/08 05:35:33;;;;;;;;;4.00;2.00;;;;;;;;5024852;28;45599;-67
2022/11/08 05:37:58;;;;;;;;;4.67;3.33;;;;;;;;5021702;28;46988;-65
2022/11/08 05:40:23;;;;;;;;;2.67;2.67;;;;;;;;5026021;28;45780;-66
2022/11/08 05:42:49;;;;;;;;;4.00;3.33;;;;;;;;5021094;28;45567;-67
2022/11/08 05:45:15;;;;;;;;;2.67;2.67;;;;;;;;5020017;28;45523;-66
2022/11/08 05:47:44;;;;;;;;;3.00;3.00;;;;;;;;5016488;28;48396;-66
2022/11/08 05:50:10;;;;;;;;;2.00;2.00;;;;;;;;5021574;28;45815;-70
2022/11/08 05:52:35;;;;;;;;;2.67;2.67;;;;;;;;5020437;28;45381;-66
2022/11/08 05:55:00;;;;;;;;;2.33;2.33;;;;;;;;5019820;28;45518;-67
2022/11/08 05:57:26;;;;;;;;;2.67;2.00;;;;;;;;5021855;28;46055;-69
2022/11/08 05:59:51;;;;;;;;;5.00;3.00;;;;;;;;5019994;28;45850;-67
2022/11/08 06:02:17;;;;;;;;;3.67;3.00;;;;;;;;5026463;28;45713;-67
2022/11/08 06:04:42;;;;;;;;;2.67;2.67;;;;;;;;5021804;28;45719;-66
2022/11/08 06:07:07;;;;;;;;;3.33;2.33;;;;;;;;5025917;28;45745;-67
2022/11/08 06:09:32;;;;;;;;;5.33;4.33;;;;;;;;5027054;28;47346;-67
2022/11/08 06:11:58;;;;;;;;;3.67;3.67;;;;;;;;5021645;28;45568;-67
2022/11/08 06:14:23;;;;;;;;;2.00;2.00;;;;;;;;5022098;28;45471;-67
2022/11/08 06:16:48;;;;;;;;;2.00;2.00;;;;;;;;5023881;28;46277;-66
2022/11/08 06:19:13;;;;;;;;;3.00;3.00;;;;;;;;5025449;28;46379;-66
2022/11/08 06:21:38;;;;;;;;;2.33;2.33;;;;;;;;5020571;28;45552;-66
2022/11/08 06:24:04;;;;;;;;;1.67;1.00;;;;;;;;5017571;28;45480;-64
2022/11/08 06:26:29;;;;;;;;;3.00;3.00;;;;;;;;5017751;28;47405;-67
2022/11/08 06:28:54;;;;;;;;;3.33;2.00;;;;;;;;5026724;28;45707;-67
2022/11/08 06:31:20;;;;;;;;;0.33;0.00;;;;;;;;5017254;28;46035;-66
2022/11/08 06:33:45;;;;;;;;;3.00;3.00;;;;;;;;5027462;28;45764;-66
2022/11/08 06:36:10;;;;;;;;;6.00;3.00;;;;;;;;5026759;28;46664;-67
2022/11/08 06:38:36;;;;;;;;;3.00;3.00;;;;;;;;5025907;28;45739;-68
2022/11/08 06:41:01;;;;;;;;;2.67;2.67;;;;;;;;5027755;28;45400;-66
2022/11/08 06:43:27;;;;;;;;;3.00;2.00;;;;;;;;5020613;28;45583;-65
2022/11/08 06:45:52;;;;;;;;;3.33;3.33;;;;;;;;5022985;28;46076;-66
2022/11/08 06:48:17;;;;;;;;;2.67;2.33;;;;;;;;5025681;28;45954;-65
2022/11/08 06:50:43;;;;;;;;;3.33;3.33;;;;;;;;5026010;28;45709;-66
2022/11/08 06:53:10;;;;;;;;;2.00;2.00;;;;;;;;5024629;28;45798;-67
2022/11/08 06:55:35;;;;;;;;;3.33;2.67;;;;;;;;5014847;28;47039;-66
2022/11/08 06:58:01;;;;;;;;;3.33;1.67;;;;;;;;5028875;28;45377;-65
2022/11/08 07:00:27;;;;;;;;;5.67;5.67;;;;;;;;5018973;28;45392;-65
2022/11/08 07:02:53;;;;;;;;;2.00;2.00;;;;;;;;5018826;28;45446;-65
2022/11/08 07:05:18;;;;;;;;;3.33;2.67;;;;;;;;5018471;28;45605;-66
2022/11/08 07:07:44;;;;;;;;;4.00;4.00;;;;;;;;5016206;28;45997;-66
2022/11/08 07:10:09;;;;;;;;;3.00;3.00;;;;;;;;5021819;28;45279;-66
2022/11/08 07:12:35;;;;;;;;;2.67;2.67;;;;;;;;5020127;28;45823;-64
2022/11/08 07:15:00;;;;;;;;;2.00;1.33;;;;;;;;5020558;28;45884;-66
2022/11/08 07:17:25;;;;;;;;;3.67;3.67;;;;;;;;5021426;28;45852;-66
2022/11/08 07:19:50;;;;;;;;;1.67;1.67;;;;;;;;5019337;28;45745;-63
2022/11/08 07:22:16;;;;;;;;;3.67;3.67;;;;;;;;5031031;28;45619;-67
2022/11/08 07:24:41;;;;;;;;;6.67;4.33;;;;;;;;5018614;28;46082;-66
2022/11/08 07:27:06;;;;;;;;;2.67;2.67;;;;;;;;5026816;28;46028;-65
2022/11/08 07:29:31;;;;;;;;;4.00;1.00;;;;;;;;5026995;28;45835;-68
2022/11/08 07:31:57;;;;;;;;;2.67;2.67;;;;;;;;5017853;28;45754;-67
2022/11/08 07:34:23;;;;;;;;;0.67;0.00;;;;;;;;5024326;28;46108;-68
2022/11/08 07:36:48;;;;;;;;;3.00;2.67;;;;;;;;5022818;28;45475;-69
2022/11/08 07:39:13;;;;;;;;;5.00;3.00;;;;;;;;5021356;28;45875;-68
2022/11/08 07:41:38;;;;;;;;;3.33;2.67;;;;;;;;5019562;28;45773;-68
2022/11/08 07:44:03;;;;;;;;;2.67;2.67;;;;;;;;5022538;28;47188;-68
2022/11/08 07:46:29;;;;;;;;;4.00;2.33;;;;;;;;5029170;28;45773;-67
2022/11/08 07:48:54;;;;;;;;;3.00;1.33;;;;;;;;5022049;28;45752;-68
2022/11/08 07:51:19;;;;;;;;;3.67;3.33;;;;;;;;5019684;28;45867;-70
2022/11/08 07:53:45;;;;;;;;;3.00;3.00;;;;;;;;5025351;28;46528;-69
2022/11/08 07:56:10;;;;;;;;;4.67;4.00;;;;;;;;5022136;28;45937;-66
2022/11/08 07:58:36;;;;;;;;;5.67;4.00;;;;;;;;5033097;28;45944;-70
2022/11/08 08:01:02;;;;;;;;;5.33;5.33;;;;;;;;5029833;28;45481;-69
2022/11/08 08:03:27;;;;;;;;;4.67;4.67;;;;;;;;5028918;28;45923;-69
2022/11/08 08:05:53;;;;;;;;;1.67;1.67;;;;;;;;5015891;28;45485;-65
2022/11/08 08:08:18;;;;;;;;;4.67;2.00;;;;;;;;5023977;28;45688;-67
2022/11/08 08:10:43;;;;;;;;;4.00;4.00;;;;;;;;5013608;28;45456;-67
2022/11/08 08:13:09;;;;;;;;;0.67;0.67;;;;;;;;5014156;28;45611;-65
2022/11/08 08:15:34;;;;;;;;;3.67;3.67;;;;;;;;5013788;28;45327;-67
2022/11/08 08:18:00;;;;;;;;;3.00;2.00;;;;;;;;5017407;28;45767;-66
2022/11/08 08:20:26;;;;;;;;;3.67;3.67;;;;;;;;5012380;28;45835;-67
2022/11/08 08:22:51;;;;;;;;;5.33;3.33;;;;;;;;5021802;28;46231;-69
2022/11/08 08:25:17;;;;;;;;;2.00;2.00;;;;;;;;5023857;28;45547;-69
2022/11/08 08:27:50;;;;;;;;;2.67;2.67;;;;;;;;5025083;28;45582;-69
2022/11/08 08:30:16;;;;;;;;;2.33;1.67;;;;;;;;5022861;28;46633;-69
2022/11/08 08:32:41;;;;;;;;;4.67;4.67;;;;;;;;5019364;28;46011;-68
2022/11/08 08:35:06;;;;;;;;;3.00;3.00;;;;;;;;5021935;28;45339;-68
2022/11/08 08:37:32;;;;;;;;;3.33;3.00;;;;;;;;5025424;28;45516;-68
2022/11/08 08:39:57;;;;;;;;;4.00;3.33;;;;;;;;5026398;28;46006;-69
2022/11/08 08:42:22;;;;;;;;;2.67;2.67;;;;;;;;5014523;28;47132;-67
2022/11/08 08:44:47;;;;;;;;;5.00;4.00;;;;;;;;5013072;28;45462;-69
2022/11/08 08:47:13;;;;;;;;;4.33;4.00;;;;;;;;5019988;28;45338;-69
2022/11/08 08:49:38;;;;;;;;;3.33;3.33;;;;;;;;5031546;28;46210;-69
2022/11/08 08:52:03;;;;;;;;;4.67;3.00;;;;;;;;5027700;28;46384;-68
2022/11/08 08:54:28;;;;;;;;;1.33;1.33;;;;;;;;5015312;28;45364;-71
2022/11/08 08:56:54;;;;;;;;;3.50;3.50;;;;;;;;5025914;28;45942;-69
2022/11/08 08:59:19;;;;;;;;;3.33;2.33;;;;;;;;5018864;28;45844;-69
2022/11/08 09:01:44;;;;;;;;;3.67;2.33;;;;;;;;5019499;28;45594;-69
2022/11/08 09:04:09;;;;;;;;;3.00;3.00;;;;;;;;5030682;28;45636;-69
2022/11/08 09:06:35;;;;;;;;;4.00;2.00;;;;;;;;5032321;28;45896;-68
2022/11/08 09:09:00;;;;;;;;;3.67;2.67;;;;;;;;5034914;28;45531;-68
2022/11/08 09:11:25;;;;;;;;;4.33;3.00;;;;;;;;5031669;28;46388;-64
2022/11/08 09:13:50;;;;;;;;;2.00;2.00;;;;;;;;5035380;28;45721;-65
2022/11/08 09:16:16;;;;;;;;;1.00;1.00;;;;;;;;5020078;28;45416;-67
2022/11/08 09:18:41;;;;;;;;;2.00;2.00;;;;;;;;5022160;28;45727;-68
2022/11/08 09:21:06;;;;;;;;;2.00;2.00;;;;;;;;5023191;28;46367;-68
2022/11/08 09:23:32;;;;;;;;;4.00;2.25;;;;;;;;5030207;28;45466;-68
2022/11/08 09:25:58;;;;;;;;;5.00;3.00;;;;;;;;5031995;28;45483;-65
2022/11/08 09:28:23;;;;;;;;;3.00;3.00;;;;;;;;5034111;28;45853;-67
2022/11/08 09:30:48;;;;;;;;;2.67;2.67;;;;;;;;5030196;28;45818;-66
2022/11/08 09:33:13;;;;;;;;;3.75;3.00;;;;;;;;5033896;28;45691;-66
2022/11/08 09:35:39;;;;;;;;;1.50;1.50;;;;;;;;5034976;28;46601;-66
2022/11/08 09:38:04;;;;;;;;;2.75;2.00;;;;;;;;5024370;28;46456;-66
2022/11/08 09:40:41;;;;;;;;;1.25;1.25;;;;;;;;5020325;28;45465;-66
2022/11/08 09:43:12;;;;;;;;;5.00;5.00;;;;;;;;5022032;28;45843;-66
2022/11/08 09:45:44;;;;;;;;;2.67;2.67;;;;;;;;5022666;28;45765;-67
2022/11/08 09:48:17;;;;;;;;;1.33;1.33;;;;;;;;5020233;28;45396;-66
2022/11/08 09:50:44;;;;;;;;;3.00;3.00;;;;;;;;5025722;28;46532;-67
2022/11/08 09:53:17;;;;;;;;;1.33;1.33;;;;;;;;5031240;28;45488;-66
2022/11/08 09:55:46;;;;;;;;;3.67;3.67;;;;;;;;5023003;28;45453;-67
2022/11/08 09:58:21;;;;;;;;;2.67;1.67;;;;;;;;5019992;28;45536;-67
2022/11/08 10:00:49;;;;;;;;;4.00;3.00;;;;;;;;5018583;28;45589;-67
2022/11/08 10:03:15;;;;;;;;;2.67;2.67;;;;;;;;5021203;28;45338;-66
2022/11/08 10:05:42;;;;;;;;;3.67;2.33;;;;;;;;5021955;28;45480;-65
2022/11/08 10:08:07;;;;;;;;;1.50;1.00;;;;;;;;5021469;28;45369;-67
2022/11/08 10:10:33;;;;;;;;;2.50;2.00;;;;;;;;5025980;28;45320;-66
2022/11/08 10:13:01;;;;;;;;;3.33;3.00;;;;;;;;5024071;28;45361;-68
2022/11/08 10:15:34;;;;;;;;;3.33;3.00;;;;;;;;5029957;28;45799;-66
2022/11/08 10:18:05;;;;;;;;;1.75;1.75;;;;;;;;5024576;28;45795;-67
2022/11/08 10:20:46;;;;;;;;;2.00;2.00;;;;;;;;5026279;28;46462;-68
2022/11/08 10:23:26;;;;;;;;;2.25;1.50;;;;;;;;5029329;28;45497;-70
2022/11/08 10:25:53;;;;;;;;;1.75;1.75;;;;;;;;5023149;28;45427;-69
2022/11/08 10:28:22;;;;;;;;;3.75;3.75;;;;;;;;5026966;28;45747;-68
2022/11/08 10:30:49;;;;;;;;;4.25;4.25;;;;;;;;5019476;28;45660;-69
2022/11/08 10:33:18;;;;;;;;;2.25;2.25;;;;;;;;5023800;28;45295;-68
2022/11/08 10:35:46;;;;;;;;;1.25;1.00;;;;;;;;5028798;28;45474;-68
2022/11/08 10:38:20;;;;;;;;;1.00;1.00;;;;;;;;5016761;28;45504;-68
2022/11/08 10:41:06;;;;;;;;;3.00;1.50;;;;;;;;5021355;28;45388;-68
2022/11/08 10:43:37;;;;;;;;;4.00;4.00;;;;;;;;5015222;28;45784;-69
2022/11/08 10:46:03;;;;;;;;;3.75;2.00;;;;;;;;5019710;28;45577;-70
2022/11/08 10:48:31;;;;;;;;;3.00;3.00;;;;;;;;5014299;28;45487;-69
2022/11/08 10:50:57;;;;;;;;;2.25;2.25;;;;;;;;5014095;28;47499;-69
2022/11/08 10:53:27;;;;;;;;;3.50;2.50;;;;;;;;5017195;28;45612;-68
2022/11/08 10:56:03;;;;;;;;;2.00;2.00;;;;;;;;5021477;28;45620;-66
2022/11/08 10:58:30;;;;;;;;;2.00;2.00;;;;;;;;5025879;28;46756;-68
2022/11/08 11:01:18;;;;;;;;;2.25;2.00;;;;;;;;5021872;28;45589;-68
2022/11/08 11:03:45;;;;;;;;;4.25;2.25;;;;;;;;5016204;28;45819;-71
2022/11/08 11:06:19;;;;;;;;;2.75;2.75;;;;;;;;5020761;28;45271;-68
2022/11/08 11:08:48;;;;;;;;;3.00;3.00;;;;;;;;5023126;28;45961;-71
2022/11/08 11:11:23;;;;;;;;;6.75;3.25;;;;;;;;5022034;28;46361;-69
2022/11/08 11:14:07;;;;;;;;;3.25;3.25;;;;;;;;5033744;28;46570;-69
2022/11/08 11:16:37;;;;;;;;;2.75;2.00;;;;;;;;5032428;28;45595;-68
2022/11/08 11:19:05;;;;;;;;;1.75;1.75;;;;;;;;5028756;28;45597;-71
2022/11/08 11:21:51;;;;;;;;;5.00;2.00;;;;;;;;5031451;28;47164;-70
2022/11/08 11:24:18;;;;;;;;;2.25;2.25;;;;;;;;5021868;28;45310;-68
2022/11/08 11:26:46;;;;;;;;;6.00;3.00;;;;;;;;5025971;28;45296;-67
2022/11/08 11:29:28;;;;;;;;;3.25;2.25;;;;;;;;5021233;28;45364;-68
2022/11/08 11:31:54;;;;;;;;;5.00;2.50;;;;;;;;5025657;28;47216;-70
2022/11/08 11:34:35;;;;;;;;;2.00;2.00;;;;;;;;5032670;28;45699;-68
2022/11/08 11:37:01;;;;;;;;;2.25;2.25;;;;;;;;5024074;28;45590;-68
2022/11/08 11:39:45;;;;;;;;;3.00;3.00;;;;;;;;5013774;28;45749;-67
2022/11/08 11:42:22;;;;;;;;;1.25;1.25;;;;;;;;5019218;28;46926;-68
2022/11/08 11:44:50;;;;;;;;;1.75;1.50;;;;;;;;5020037;28;45710;-71
2022/11/08 11:47:19;;;;;;;;;3.00;2.50;;;;;;;;5026617;28;45767;-67
2022/11/08 11:49:46;;;;;;;;;2.25;1.50;;;;;;;;5024883;28;45970;-68
2022/11/08 11:52:13;;;;;;;;;3.25;2.00;;;;;;;;5016000;28;48339;-69
2022/11/08 11:54:40;;;;;;;;;1.00;1.00;;;;;;;;5019617;28;45458;-71
2022/11/08 11:57:08;;;;;;;;;4.25;3.25;;;;;;;;5018750;28;45480;-67
2022/11/08 11:59:39;;;;;;;;;3.75;3.00;;;;;;;;5018019;28;45777;-69
2022/11/08 12:02:08;;;;;;;;;4.25;3.00;;;;;;;;5018527;28;46889;-68
2022/11/08 12:04:36;;;;;;;;;3.00;2.00;;;;;;;;5020893;28;45810;-69
2022/11/08 12:07:10;;;;;;;;;3.75;3.50;;;;;;;;5026581;28;45432;-68
2022/11/08 12:09:54;;;;;;;;;3.00;3.00;;;;;;;;5031146;28;45742;-69
2022/11/08 12:12:37;;;;;;;;;3.00;2.00;;;;;;;;5025276;28;45954;-69
2022/11/08 12:15:08;;;;;;;;;7.00;4.25;;;;;;;;5019163;28;45819;-69
2022/11/08 12:17:33;;;;;;;;;3.25;2.50;;;;;;;;5022346;28;45358;-69
2022/11/08 12:20:05;;;;;;;;;1.50;1.50;;;;;;;;5022151;28;46032;-69
2022/11/08 12:22:49;;;;;;;;;2.00;2.00;;;;;;;;5021019;28;45836;-69
2022/11/08 12:25:33;;;;;;;;;7.50;2.75;;;;;;;;5025978;28;46422;-68
2022/11/08 12:28:20;;;;;;;;;3.00;2.25;;;;;;;;5029900;28;45935;-67
2022/11/08 12:31:02;;;;;;;;;3.00;3.00;;;;;;;;5025436;28;45733;-68
2022/11/08 12:33:30;;;;;;;;;3.00;2.25;;;;;;;;5023390;28;46121;-67
2022/11/08 12:36:14;;;;;;;;;2.00;2.00;;;;;;;;5016101;28;45409;-68
2022/11/08 12:38:52;;;;;;;;;3.75;3.00;;;;;;;;5035067;28;45431;-68
2022/11/08 12:41:33;;;;;;;;;2.25;1.00;;;;;;;;5016501;28;45918;-68
2022/11/08 12:44:17;;;;;;;;;2.25;2.00;;;;;;;;5035371;28;46616;-70
2022/11/08 12:47:01;;;;;;;;;3.75;2.50;;;;;;;;5021984;28;45549;-67
2022/11/08 12:49:38;;;;;;;;;4.00;3.00;;;;;;;;5031509;28;45705;-68
2022/11/08 12:52:21;;;;;;;;;3.25;2.00;;;;;;;;5031703;28;45490;-68
2022/11/08 12:55:01;;;;;;;;;5.00;2.75;;;;;;;;5022674;28;45435;-68
2022/11/08 12:57:27;;;;;;;;;5.00;1.50;;;;;;;;5018737;28;45845;-67
2022/11/08 13:00:07;;;;;;;;;3.67;2.00;;;;;;;;5020340;28;46592;-69
2022/11/08 13:02:36;;;;;;;;;4.00;4.00;;;;;;;;5013394;28;46172;-68
2022/11/08 13:05:04;;;;;;;;;4.00;4.00;;;;;;;;5019745;28;45945;-68
2022/11/08 13:07:30;;;;;;;;;4.00;4.00;;;;;;;;5014720;28;45691;-67
2022/11/08 13:10:09;;;;;;;;;2.75;2.75;;;;;;;;5012314;28;46331;-69
2022/11/08 13:12:43;;;;;;;;;4.33;2.67;;;;;;;;5013541;28;45739;-67
2022/11/08 13:15:17;;;;;;;;;4.00;3.00;;;;;;;;5012113;28;45661;-67
2022/11/08 13:18:02;;;;;;;;;3.50;2.00;;;;;;;;5015468;28;45511;-66
2022/11/08 13:20:40;;;;;;;;;4.50;2.75;;;;;;;;5013359;28;45657;-67
2022/11/08 13:23:10;;;;;;;;;3.25;2.00;;;;;;;;5028189;28;45577;-67
2022/11/08 13:25:36;;;;;;;;;2.33;2.00;;;;;;;;5016344;28;45623;-68
2022/11/08 13:28:01;;;;;;;;;3.25;2.25;;;;;;;;5017363;28;45465;-67
2022/11/08 13:30:32;;;;;;;;;2.00;1.00;;;;;;;;5028216;28;45416;-66
2022/11/08 13:32:57;;;;;;;;;2.00;2.00;;;;;;;;5028368;28;45926;-67
2022/11/08 13:35:48;;;;;;;;;5.00;3.67;;;;;;;;5026685;28;46543;-66
2022/11/08 13:38:28;;;;;;;;;1.75;1.75;;;;;;;;5029148;28;45874;-67
2022/11/08 13:40:59;;;;;;;;;1.75;1.75;;;;;;;;5029348;28;45658;-66
2022/11/08 13:43:26;;;;;;;;;1.00;1.00;;;;;;;;5019321;28;47079;-66
2022/11/08 13:45:51;;;;;;;;;2.00;2.00;;;;;;;;5021348;28;46086;-67
2022/11/08 13:48:23;;;;;;;;;1.00;1.00;;;;;;;;5016475;28;45793;-68
2022/11/08 13:50:55;;;;;;;;;4.25;2.00;;;;;;;;5016970;28;45813;-68
2022/11/08 13:53:20;;;;;;;;;2.25;2.00;;;;;;;;5031160;28;45824;-67
2022/11/08 13:55:49;;;;;;;;;3.00;3.00;;;;;;;;5027487;28;46270;-67
2022/11/08 13:58:34;;;;;;;;;2.25;1.25;;;;;;;;5025312;28;45749;-68
2022/11/08 14:01:04;;;;;;;;;4.50;2.00;;;;;;;;5024130;28;45491;-68
2022/11/08 14:03:32;;;;;;;;;4.00;3.00;;;;;;;;5026037;28;45891;-67
2022/11/08 14:06:03;;;;;;;;;2.00;2.00;;;;;;;;5013752;28;45936;-67
2022/11/08 14:08:35;;;;;;;;;3.50;1.75;;;;;;;;5044339;28;45763;-68
2022/11/08 14:11:04;;;;;;;;;2.50;2.00;;;;;;;;5045202;28;45455;-71
2022/11/08 14:13:33;;;;;;;;;3.25;2.50;;;;;;;;5045650;28;45344;-68
2022/11/08 14:16:05;;;;;;;;;3.33;3.33;;;;;;;;5024203;28;45592;-69
2022/11/08 14:18:32;;;;;;;;;3.50;2.00;;;;;;;;5016013;28;45546;-68
2022/11/08 14:20:58;;;;;;;;;3.75;1.75;;;;;;;;5015464;28;45525;-67
2022/11/08 14:23:39;;;;;;;;;2.75;2.00;;;;;;;;5021978;28;46913;-66
2022/11/08 14:26:10;;;;;;;;;3.00;2.00;;;;;;;;5026599;28;45728;-68
2022/11/08 14:28:36;;;;;;;;;2.00;2.00;;;;;;;;5018961;28;45790;-68
2022/11/08 14:31:04;;;;;;;;;3.00;2.75;;;;;;;;5024689;28;45395;-68
2022/11/08 14:33:30;;;;;;;;;3.25;3.25;;;;;;;;5021827;28;45952;-71
2022/11/08 14:35:57;;;;;;;;;6.67;4.00;;;;;;;;5023587;28;46529;-68
2022/11/08 14:38:23;;;;;;;;;2.25;2.25;;;;;;;;5018984;28;46013;-66
2022/11/08 14:40:51;;;;;;;;;3.25;2.00;;;;;;;;5025267;28;45474;-66
2022/11/08 14:43:17;;;;;;;;;3.50;3.50;;;;;;;;5026283;28;45935;-68
2022/11/08 14:45:42;;;;;;;;;2.25;2.00;;;;;;;;5027335;28;47914;-67
2022/11/08 14:48:13;;;;;;;;;2.75;2.75;;;;;;;;5014210;28;45602;-67
2022/11/08 14:50:38;;;;;;;;;4.00;2.00;;;;;;;;5020320;28;45754;-66
2022/11/08 14:53:33;;;;;;;;;1.25;1.25;;;;;;;;5017667;28;45703;-67
2022/11/08 14:56:02;;;;;;;;;3.25;1.00;;;;;;;;5013145;28;45481;-66
2022/11/08 14:58:27;;;;;;;;;2.00;1.00;;;;;;;;5031852;28;45700;-69
2022/11/08 15:00:53;;;;;;;;;2.00;1.75;;;;;;;;5012412;28;45453;-68
2022/11/08 15:03:18;;;;;;;;;2.00;2.00;;;;;;;;5020008;28;45883;-66
2022/11/08 15:05:45;;;;;;;;;4.00;2.00;;;;;;;;5022271;28;45629;-67
2022/11/08 15:08:26;;;;;;;;;2.00;1.00;;;;;;;;5019761;28;45508;-68